sensor_id;sensor_type;location;lat;lon;timestamp;P1;durP1;ratioP1;P2;durP2;ratioP2
16967;SDS011;64862;54.398;10.126;2023-02-28T00:08:47;9.10;;;3.67;;
16967;SDS011;64862;54.398;10.126;2023-02-28T00:18:51;9.80;;;3.85;;
16967;SDS011;64862;54.398;10.126;2023-02-28T00:28:53;11.35;;;4.35;;
16967;SDS011;64862;54.398;10.126;2023-02-28T00:38:58;9.55;;;4.15;;
16967;SDS011;64862;54.398;10.126;2023-02-28T00:49:02;11.95;;;4.15;;
16967;SDS011;64862;54.398;10.126;2023-02-28T00:59:05;8.55;;;3.58;;
16967;SDS011;64862;54.398;10.126;2023-02-28T01:09:07;8.50;;;3.67;;
16967;SDS011;64862;54.398;10.126;2023-02-28T01:19:11;9.88;;;3.70;;
16967;SDS011;64862;54.398;10.126;2023-02-28T01:29:13;10.23;;;4.05;;
16967;SDS011;64862;54.398;10.126;2023-02-28T01:39:17;8.68;;;3.45;;
16967;SDS011;64862;54.398;10.126;2023-02-28T01:49:19;7.38;;;3.95;;
16967;SDS011;64862;54.398;10.126;2023-02-28T01:59:24;9.60;;;4.22;;
16967;SDS011;64862;54.398;10.126;2023-02-28T02:09:31;9.50;;;4.00;;
16967;SDS011;64862;54.398;10.126;2023-02-28T02:19:43;8.85;;;3.90;;
16967;SDS011;64862;54.398;10.126;2023-02-28T02:40:51;9.45;;;4.25;;
16967;SDS011;64862;54.398;10.126;2023-02-28T02:51:06;10.60;;;4.18;;
16967;SDS011;64862;54.398;10.126;2023-02-28T03:01:17;11.68;;;4.30;;
16967;SDS011;64862;54.398;10.126;2023-02-28T03:11:28;10.85;;;3.90;;
16967;SDS011;64862;54.398;10.126;2023-02-28T03:21:34;11.90;;;3.95;;
16967;SDS011;64862;54.398;10.126;2023-02-28T03:31:43;8.93;;;3.63;;
16967;SDS011;64862;54.398;10.126;2023-02-28T03:41:51;7.72;;;3.60;;
16967;SDS011;64862;54.398;10.126;2023-02-28T03:51:58;8.37;;;3.73;;
16967;SDS011;64862;54.398;10.126;2023-02-28T04:02:05;14.75;;;5.25;;
16967;SDS011;64862;54.398;10.126;2023-02-28T04:12:07;16.10;;;5.72;;
16967;SDS011;64862;54.398;10.126;2023-02-28T04:22:10;20.08;;;7.43;;
16967;SDS011;64862;54.398;10.126;2023-02-28T04:32:14;17.35;;;5.93;;
16967;SDS011;64862;54.398;10.126;2023-02-28T04:42:18;12.25;;;5.32;;
16967;SDS011;64862;54.398;10.126;2023-02-28T04:52:20;12.13;;;5.30;;
16967;SDS011;64862;54.398;10.126;2023-02-28T05:02:23;11.82;;;4.47;;
16967;SDS011;64862;54.398;10.126;2023-02-28T05:12:25;8.88;;;3.78;;
16967;SDS011;64862;54.398;10.126;2023-02-28T05:22:28;9.95;;;4.45;;
16967;SDS011;64862;54.398;10.126;2023-02-28T05:32:30;9.25;;;4.30;;
16967;SDS011;64862;54.398;10.126;2023-02-28T05:42:34;10.30;;;4.07;;
16967;SDS011;64862;54.398;10.126;2023-02-28T05:52:36;8.75;;;3.97;;
16967;SDS011;64862;54.398;10.126;2023-02-28T06:02:39;9.20;;;4.38;;
16967;SDS011;64862;54.398;10.126;2023-02-28T06:12:41;8.35;;;4.30;;
16967;SDS011;64862;54.398;10.126;2023-02-28T06:22:44;11.65;;;4.93;;
16967;SDS011;64862;54.398;10.126;2023-02-28T06:32:46;12.27;;;5.85;;
16967;SDS011;64862;54.398;10.126;2023-02-28T06:42:51;15.05;;;6.70;;
16967;SDS011;64862;54.398;10.126;2023-02-28T06:52:53;14.05;;;6.28;;
16967;SDS011;64862;54.398;10.126;2023-02-28T07:02:57;14.15;;;7.20;;
16967;SDS011;64862;54.398;10.126;2023-02-28T07:12:59;20.27;;;7.90;;
16967;SDS011;64862;54.398;10.126;2023-02-28T07:23:02;17.70;;;8.77;;
16967;SDS011;64862;54.398;10.126;2023-02-28T07:33:04;15.77;;;8.00;;
16967;SDS011;64862;54.398;10.126;2023-02-28T07:43:07;12.18;;;6.25;;
16967;SDS011;64862;54.398;10.126;2023-02-28T07:53:09;11.50;;;5.40;;
16967;SDS011;64862;54.398;10.126;2023-02-28T08:23:18;9.30;;;4.72;;
16967;SDS011;64862;54.398;10.126;2023-02-28T08:33:20;10.13;;;5.00;;
16967;SDS011;64862;54.398;10.126;2023-02-28T08:53:26;9.10;;;4.30;;
16967;SDS011;64862;54.398;10.126;2023-02-28T09:03:29;12.65;;;4.63;;
16967;SDS011;64862;54.398;10.126;2023-02-28T09:13:32;9.85;;;4.60;;
16967;SDS011;64862;54.398;10.126;2023-02-28T09:23:36;8.27;;;3.80;;
16967;SDS011;64862;54.398;10.126;2023-02-28T09:33:39;11.85;;;3.70;;
16967;SDS011;64862;54.398;10.126;2023-02-28T09:43:43;6.70;;;3.70;;
16967;SDS011;64862;54.398;10.126;2023-02-28T09:53:48;7.45;;;3.30;;
16967;SDS011;64862;54.398;10.126;2023-02-28T10:03:52;6.95;;;3.35;;
16967;SDS011;64862;54.398;10.126;2023-02-28T10:13:59;7.25;;;2.70;;
16967;SDS011;64862;54.398;10.126;2023-02-28T10:24:11;4.63;;;2.20;;
16967;SDS011;64862;54.398;10.126;2023-02-28T10:34:20;5.85;;;2.17;;
16967;SDS011;64862;54.398;10.126;2023-02-28T10:44:23;4.88;;;1.95;;
16967;SDS011;64862;54.398;10.126;2023-02-28T10:54:27;6.93;;;2.33;;
16967;SDS011;64862;54.398;10.126;2023-02-28T11:04:36;5.57;;;2.58;;
16967;SDS011;64862;54.398;10.126;2023-02-28T11:14:46;5.95;;;2.75;;
16967;SDS011;64862;54.398;10.126;2023-02-28T11:24:52;7.00;;;2.92;;
16967;SDS011;64862;54.398;10.126;2023-02-28T11:35:02;4.85;;;2.63;;
16967;SDS011;64862;54.398;10.126;2023-02-28T11:45:18;5.90;;;2.90;;
16967;SDS011;64862;54.398;10.126;2023-02-28T11:55:36;7.63;;;3.13;;
16967;SDS011;64862;54.398;10.126;2023-02-28T12:05:42;7.15;;;3.17;;
16967;SDS011;64862;54.398;10.126;2023-02-28T12:26:04;8.77;;;2.93;;
16967;SDS011;64862;54.398;10.126;2023-02-28T12:36:15;8.43;;;2.83;;
16967;SDS011;64862;54.398;10.126;2023-02-28T12:46:24;7.33;;;2.97;;
16967;SDS011;64862;54.398;10.126;2023-02-28T12:56:33;6.03;;;2.40;;
16967;SDS011;64862;54.398;10.126;2023-02-28T13:06:45;6.75;;;2.47;;
16967;SDS011;64862;54.398;10.126;2023-02-28T13:17:03;6.55;;;2.50;;
16967;SDS011;64862;54.398;10.126;2023-02-28T13:37:36;5.60;;;2.30;;
16967;SDS011;64862;54.398;10.126;2023-02-28T13:58:03;6.32;;;2.10;;
16967;SDS011;64862;54.398;10.126;2023-02-28T14:08:24;4.30;;;2.05;;
16967;SDS011;64862;54.398;10.126;2023-02-28T14:18:28;4.18;;;2.10;;
16967;SDS011;64862;54.398;10.126;2023-02-28T14:28:40;5.82;;;2.17;;
16967;SDS011;64862;54.398;10.126;2023-02-28T14:38:51;4.72;;;2.47;;
16967;SDS011;64862;54.398;10.126;2023-02-28T14:48:57;6.40;;;2.40;;
16967;SDS011;64862;54.398;10.126;2023-02-28T14:59:00;6.03;;;2.72;;
16967;SDS011;64862;54.398;10.126;2023-02-28T15:09:10;6.22;;;2.83;;
16967;SDS011;64862;54.398;10.126;2023-02-28T15:19:18;12.07;;;4.10;;
16967;SDS011;64862;54.398;10.126;2023-02-28T15:29:26;8.77;;;4.40;;
16967;SDS011;64862;54.398;10.126;2023-02-28T15:39:30;6.93;;;3.78;;
16967;SDS011;64862;54.398;10.126;2023-02-28T15:49:46;10.07;;;4.40;;
16967;SDS011;64862;54.398;10.126;2023-02-28T15:59:50;9.93;;;4.50;;
16967;SDS011;64862;54.398;10.126;2023-02-28T16:09:56;8.32;;;4.10;;
16967;SDS011;64862;54.398;10.126;2023-02-28T16:19:58;9.73;;;3.90;;
16967;SDS011;64862;54.398;10.126;2023-02-28T16:30:02;5.80;;;3.53;;
16967;SDS011;64862;54.398;10.126;2023-02-28T16:40:07;7.63;;;3.65;;
16967;SDS011;64862;54.398;10.126;2023-02-28T16:50:19;9.38;;;4.10;;
16967;SDS011;64862;54.398;10.126;2023-02-28T17:00:22;9.52;;;3.78;;
16967;SDS011;64862;54.398;10.126;2023-02-28T17:10:28;7.53;;;3.67;;
16967;SDS011;64862;54.398;10.126;2023-02-28T17:20:30;8.75;;;3.45;;
16967;SDS011;64862;54.398;10.126;2023-02-28T17:30:34;7.30;;;3.28;;
16967;SDS011;64862;54.398;10.126;2023-02-28T17:40:36;9.10;;;4.32;;
16967;SDS011;64862;54.398;10.126;2023-02-28T17:50:39;6.60;;;3.40;;
16967;SDS011;64862;54.398;10.126;2023-02-28T18:00:41;11.25;;;4.13;;
16967;SDS011;64862;54.398;10.126;2023-02-28T18:10:45;8.25;;;4.63;;
16967;SDS011;64862;54.398;10.126;2023-02-28T18:20:47;10.32;;;5.35;;
16967;SDS011;64862;54.398;10.126;2023-02-28T18:30:51;11.68;;;5.63;;
16967;SDS011;64862;54.398;10.126;2023-02-28T18:40:54;12.32;;;6.70;;
16967;SDS011;64862;54.398;10.126;2023-02-28T18:51:01;13.88;;;6.05;;
16967;SDS011;64862;54.398;10.126;2023-02-28T19:01:12;13.85;;;6.50;;
16967;SDS011;64862;54.398;10.126;2023-02-28T19:11:17;18.58;;;9.88;;
16967;SDS011;64862;54.398;10.126;2023-02-28T19:21:20;16.73;;;8.95;;
16967;SDS011;64862;54.398;10.126;2023-02-28T19:31:24;20.90;;;10.13;;
16967;SDS011;64862;54.398;10.126;2023-02-28T19:41:27;20.17;;;10.80;;
16967;SDS011;64862;54.398;10.126;2023-02-28T19:51:30;19.70;;;10.57;;
16967;SDS011;64862;54.398;10.126;2023-02-28T20:01:33;22.38;;;10.98;;
16967;SDS011;64862;54.398;10.126;2023-02-28T20:11:36;18.25;;;10.13;;
16967;SDS011;64862;54.398;10.126;2023-02-28T20:21:38;19.70;;;9.77;;
16967;SDS011;64862;54.398;10.126;2023-02-28T20:31:44;34.53;;;16.20;;
16967;SDS011;64862;54.398;10.126;2023-02-28T20:41:46;48.35;;;19.23;;
16967;SDS011;64862;54.398;10.126;2023-02-28T20:51:49;25.17;;;12.70;;
16967;SDS011;64862;54.398;10.126;2023-02-28T21:01:51;16.40;;;9.85;;
16967;SDS011;64862;54.398;10.126;2023-02-28T21:11:56;16.95;;;10.52;;
16967;SDS011;64862;54.398;10.126;2023-02-28T21:21:58;20.63;;;11.38;;
16967;SDS011;64862;54.398;10.126;2023-02-28T21:32:01;20.48;;;12.30;;
16967;SDS011;64862;54.398;10.126;2023-02-28T21:42:03;42.22;;;23.38;;
16967;SDS011;64862;54.398;10.126;2023-02-28T21:52:07;28.17;;;17.33;;
16967;SDS011;64862;54.398;10.126;2023-02-28T22:02:11;26.15;;;16.23;;
16967;SDS011;64862;54.398;10.126;2023-02-28T22:12:15;27.10;;;14.90;;
16967;SDS011;64862;54.398;10.126;2023-02-28T22:22:17;31.05;;;16.30;;
16967;SDS011;64862;54.398;10.126;2023-02-28T22:32:20;29.70;;;16.45;;
16967;SDS011;64862;54.398;10.126;2023-02-28T22:42:22;31.02;;;16.60;;
16967;SDS011;64862;54.398;10.126;2023-02-28T22:52:25;31.95;;;17.10;;
16967;SDS011;64862;54.398;10.126;2023-02-28T23:02:28;31.63;;;17.00;;
16967;SDS011;64862;54.398;10.126;2023-02-28T23:12:31;29.77;;;16.85;;
16967;SDS011;64862;54.398;10.126;2023-02-28T23:22:33;32.28;;;16.95;;
16967;SDS011;64862;54.398;10.126;2023-02-28T23:32:37;31.92;;;17.48;;
16967;SDS011;64862;54.398;10.126;2023-02-28T23:42:39;34.90;;;17.42;;
16967;SDS011;64862;54.398;10.126;2023-02-28T23:52:42;37.63;;;18.70;;
